Time;durP1;ratioP1;P1;durP2;ratioP2;P2;SDS_P1;SDS_P2;PMS_P1;PMS_P2;Temp;Humidity;BMP_temperature;BMP_pressure;BME280_temperature;BME280_humidity;BME280_pressure;Samples;Min_cycle;Max_cycle;Signal;HPM_P1;HPM_P2
2022/10/12 00:00:54;;;;;;;15.70;12.35;;;;;;;13.54;70.48;95395.66;5049230;28;20028;-73
2022/10/12 00:03:20;;;;;;;15.45;12.60;;;;;;;13.49;70.84;95389.19;5050446;28;20045;-73
2022/10/12 00:05:46;;;;;;;14.93;11.95;;;;;;;13.53;70.77;95399.22;5049332;28;20122;-73
2022/10/12 00:08:11;;;;;;;14.02;11.95;;;;;;;13.43;71.02;95385.31;5049239;28;20487;-73
2022/10/12 00:10:43;;;;;;;16.75;12.45;;;;;;;13.50;71.03;95386.44;5050613;28;20108;-73
2022/10/12 00:13:10;;;;;;;15.90;11.77;;;;;;;13.57;70.42;95378.91;5016082;28;20103;-73
2022/10/12 00:15:37;;;;;;;15.10;12.25;;;;;;;13.55;70.68;95392.09;5032537;28;20112;-73
2022/10/12 00:18:03;;;;;;;15.50;12.57;;;;;;;13.43;71.00;95384.47;5049084;28;20078;-73
2022/10/12 00:20:28;;;;;;;16.88;13.43;;;;;;;13.35;71.11;95391.19;5032434;28;20083;-73
2022/10/12 00:22:54;;;;;;;15.85;12.50;;;;;;;13.27;71.23;95383.16;5050291;28;20036;-74
2022/10/12 00:25:19;;;;;;;15.98;12.95;;;;;;;13.20;71.56;95382.00;5054104;28;20028;-73
2022/10/12 00:27:45;;;;;;;14.77;11.88;;;;;;;13.17;71.84;95372.63;5052759;28;20051;-73
2022/10/12 00:30:11;;;;;;;16.15;12.32;;;;;;;13.27;71.94;95385.78;5052330;28;20072;-73
2022/10/12 00:32:37;;;;;;;16.33;13.25;;;;;;;13.27;71.97;95382.34;5053940;28;20656;-74
2022/10/12 00:35:02;;;;;;;17.23;12.80;;;;;;;13.25;71.90;95373.78;5053809;28;20040;-73
2022/10/12 00:37:28;;;;;;;13.27;11.25;;;;;;;13.15;72.00;95369.34;5036230;28;20439;-73
2022/10/12 00:39:53;;;;;;;17.85;13.05;;;;;;;13.19;71.94;95377.75;5053815;28;20090;-73
2022/10/12 00:42:19;;;;;;;14.57;11.77;;;;;;;13.16;72.09;95375.38;5053570;28;20037;-73
2022/10/12 00:44:46;;;;;;;14.50;12.40;;;;;;;13.21;72.10;95382.84;5053710;28;20037;-73
2022/10/12 00:47:22;;;;;;;16.45;12.18;;;;;;;13.25;72.30;95385.03;5035932;28;20043;-73
2022/10/12 00:49:55;;;;;;;15.63;11.90;;;;;;;13.21;72.46;95383.66;5053590;28;20025;-73
2022/10/12 00:52:22;;;;;;;13.98;11.32;;;;;;;12.90;72.50;95338.47;5052317;28;20040;-73
2022/10/12 00:54:48;;;;;;;15.48;12.35;;;;;;;13.11;72.47;95374.94;5068760;28;20088;-73
2022/10/12 00:57:14;;;;;;;15.75;12.45;;;;;;;13.14;72.50;95377.28;5035514;28;20033;-73
2022/10/12 00:59:43;;;;;;;12.70;10.63;;;;;;;13.01;72.42;95361.88;5052062;28;20025;-73
2022/10/12 01:02:08;;;;;;;14.50;10.35;;;;;;;13.09;72.33;95371.63;5018976;28;20045;-73
2022/10/12 01:04:34;;;;;;;12.68;10.43;;;;;;;13.06;72.36;95370.09;5053150;28;20032;-73
2022/10/12 01:06:59;;;;;;;14.45;10.63;;;;;;;13.06;72.36;95370.09;5035409;28;20041;-73
2022/10/12 01:09:26;;;;;;;13.15;10.50;;;;;;;13.04;72.68;95371.19;5035214;28;20040;-73
2022/10/12 01:11:51;;;;;;;10.50;9.30;;;;;;;12.99;72.50;95353.34;5035729;28;20104;-73
2022/10/12 01:14:17;;;;;;;12.15;10.13;;;;;;;13.10;72.55;95368.91;5035137;28;20506;-73
2022/10/12 01:16:52;;;;;;;11.20;9.45;;;;;;;13.04;72.71;95366.81;5035099;28;20046;-73
2022/10/12 01:19:36;;;;;;;14.05;10.05;;;;;;;13.06;72.66;95369.28;5036138;28;20040;-73
2022/10/12 01:22:06;;;;;;;10.98;9.80;;;;;;;12.99;73.07;95365.56;5052826;28;20467;-73
2022/10/12 01:24:51;;;;;;;11.38;10.23;;;;;;;13.01;73.09;95379.25;5035084;28;20554;-73
2022/10/12 01:27:58;;;;;;;13.93;10.18;;;;;;;13.01;72.66;95376.66;5052781;28;20037;-73
2022/10/12 01:30:25;;;;;;;12.57;9.68;;;;;;;12.97;72.92;95374.31;5051279;28;20045;-73
2022/10/12 01:33:00;;;;;;;11.43;9.27;;;;;;;12.95;72.71;95372.78;5051539;28;20123;-73
2022/10/12 01:36:02;;;;;;;14.93;10.02;;;;;;;12.99;72.42;95373.38;5034878;28;20505;-73
2022/10/12 01:39:12;;;;;;;11.45;9.25;;;;;;;12.97;71.83;95371.69;5052560;28;20133;-73
2022/10/12 01:41:43;;;;;;;14.18;9.32;;;;;;;12.99;71.79;95368.97;5052432;28;20051;-73
2022/10/12 01:44:08;;;;;;;10.68;9.52;;;;;;;12.95;71.75;95365.81;5031240;28;20040;-73
2022/10/12 01:46:41;;;;;;;12.88;9.55;;;;;;;13.03;71.68;95370.38;5039301;28;20037;-73
2022/10/12 01:49:06;;;;;;;11.38;9.15;;;;;;;13.00;72.32;95364.59;5051381;28;20431;-73
2022/10/12 01:51:35;;;;;;;12.05;9.40;;;;;;;13.00;72.37;95375.03;5034284;28;20167;-73
2022/10/12 01:54:23;;;;;;;12.98;9.90;;;;;;;13.01;72.85;95371.44;5052144;28;20061;-73
2022/10/12 01:57:03;;;;;;;16.65;12.00;;;;;;;12.99;72.88;95379.41;5038970;28;20048;-73
2022/10/12 01:59:50;;;;;;;17.38;13.35;;;;;;;12.96;72.74;95380.50;5054460;28;20041;-73
2022/10/12 02:02:49;;;;;;;16.60;12.43;;;;;;;12.99;72.95;95379.41;5029790;28;20052;-73
2022/10/12 02:05:45;;;;;;;13.73;10.52;;;;;;;12.99;72.82;95376.81;5041031;28;20040;-73
2022/10/12 02:08:29;;;;;;;12.73;9.60;;;;;;;13.00;72.65;95375.03;5049573;28;20120;-73
2022/10/12 02:11:14;;;;;;;11.10;9.48;;;;;;;12.96;72.33;95375.28;5059294;28;20469;-73
2022/10/12 02:13:45;;;;;;;11.48;9.75;;;;;;;12.95;72.84;95373.63;5053955;28;20115;-73
2022/10/12 02:16:12;;;;;;;13.70;9.52;;;;;;;12.95;72.49;95367.56;5064433;28;20035;-73
2022/10/12 02:18:41;;;;;;;10.40;8.98;;;;;;;13.05;72.18;95375.47;5069083;28;20036;-73
2022/10/12 02:21:06;;;;;;;12.30;9.35;;;;;;;13.09;72.08;95384.66;5054207;28;20111;-73
2022/10/12 02:23:32;;;;;;;11.30;8.95;;;;;;;13.06;72.49;95374.50;5070478;28;20036;-73
2022/10/12 02:25:58;;;;;;;10.40;9.20;;;;;;;13.01;72.24;95376.66;5052060;28;20044;-73
2022/10/12 02:28:24;;;;;;;9.35;8.27;;;;;;;13.02;72.45;95388.75;5053679;28;20418;-73
2022/10/12 02:31:08;;;;;;;12.15;9.23;;;;;;;12.97;72.74;95392.56;5066455;28;20041;-73
2022/10/12 02:33:43;;;;;;;10.20;8.13;;;;;;;12.80;72.42;95374.91;5049522;28;20495;-73
2022/10/12 02:36:16;;;;;;;11.50;8.73;;;;;;;12.82;72.57;95380.81;5050449;28;20116;-73
2022/10/12 02:39:00;;;;;;;9.70;8.20;;;;;;;12.85;72.29;95380.56;5032741;28;20041;-73
2022/10/12 02:41:28;;;;;;;8.90;7.80;;;;;;;12.90;72.59;95395.84;5049355;28;20512;-74
2022/10/12 02:43:57;;;;;;;9.43;7.95;;;;;;;12.87;72.68;95391.69;5053196;28;20063;-74
2022/10/12 02:46:23;;;;;;;11.50;8.13;;;;;;;12.87;72.62;95389.09;5069523;28;20040;-74
2022/10/12 02:48:48;;;;;;;9.32;7.78;;;;;;;12.89;72.73;95394.16;5063680;28;20029;-74
2022/10/12 02:51:13;;;;;;;9.90;8.07;;;;;;;12.85;72.64;95377.13;5023901;28;20040;-74
2022/10/12 02:53:39;;;;;;;10.02;7.82;;;;;;;12.87;72.63;95386.47;5069897;28;20086;-74
2022/10/12 02:56:10;;;;;;;9.43;8.00;;;;;;;12.77;72.50;95374.31;5071046;28;20036;-73
2022/10/12 02:58:35;;;;;;;9.85;7.72;;;;;;;12.84;72.85;95386.75;5070000;28;20060;-74
2022/10/12 03:01:01;;;;;;;10.32;7.97;;;;;;;12.89;72.97;95386.34;5054356;28;20047;-74
2022/10/12 03:03:26;;;;;;;11.60;8.93;;;;;;;12.85;72.95;95383.16;5053041;28;20105;-74
2022/10/12 03:05:52;;;;;;;10.52;8.20;;;;;;;12.89;72.99;95384.56;5069841;28;20028;-74
2022/10/12 03:08:17;;;;;;;9.63;7.80;;;;;;;12.79;72.95;95368.03;5069786;28;20043;-74
2022/10/12 03:10:43;;;;;;;11.85;8.45;;;;;;;12.85;73.02;95388.38;5049248;28;20035;-73
2022/10/12 03:13:08;;;;;;;9.20;7.78;;;;;;;12.83;72.97;95395.50;5069728;28;20032;-74
2022/10/12 03:15:34;;;;;;;9.75;7.82;;;;;;;12.81;73.17;95391.34;5052961;28;20039;-73
2022/10/12 03:17:59;;;;;;;9.05;7.55;;;;;;;12.84;73.17;95383.28;5053930;28;20041;-73
2022/10/12 03:20:24;;;;;;;8.77;7.78;;;;;;;12.83;73.16;95392.88;5050915;28;20380;-73
2022/10/12 03:22:50;;;;;;;10.30;7.80;;;;;;;12.83;73.24;95382.47;5032969;28;20502;-73
2022/10/12 03:25:15;;;;;;;10.63;8.45;;;;;;;12.84;73.16;95389.34;5019751;28;20456;-73
2022/10/12 03:27:41;;;;;;;9.35;7.40;;;;;;;12.82;73.23;95383.44;5069614;28;20033;-73
2022/10/12 03:30:07;;;;;;;9.48;7.70;;;;;;;12.75;73.25;95392.69;5069296;28;20056;-73
2022/10/12 03:32:32;;;;;;;10.27;7.85;;;;;;;12.73;73.24;95389.38;5069604;28;20040;-73
2022/10/12 03:34:58;;;;;;;12.27;9.35;;;;;;;12.65;73.25;95378.78;5069108;28;20028;-73
2022/10/12 03:37:23;;;;;;;9.13;7.35;;;;;;;12.71;73.69;95388.69;5069017;28;20407;-72
2022/10/12 03:39:49;;;;;;;12.68;7.97;;;;;;;12.71;73.68;95383.47;5069425;28;20036;-72
2022/10/12 03:42:14;;;;;;;9.30;8.18;;;;;;;12.72;73.61;95392.94;5050815;28;20033;-72
2022/10/12 03:44:40;;;;;;;10.18;8.25;;;;;;;12.75;73.78;95390.09;5050716;28;20179;-72
2022/10/12 03:47:05;;;;;;;9.63;7.68;;;;;;;12.75;73.71;95392.69;5050382;28;20069;-72
2022/10/12 03:49:31;;;;;;;9.98;8.70;;;;;;;12.73;73.86;95386.75;5050036;28;20448;-73
2022/10/12 03:51:56;;;;;;;10.98;8.20;;;;;;;12.76;73.67;95391.75;5032702;28;20029;-73
2022/10/12 03:54:22;;;;;;;8.77;7.75;;;;;;;12.71;73.59;95386.09;5051433;28;20029;-73
2022/10/12 03:56:47;;;;;;;9.80;8.13;;;;;;;12.70;73.56;95390.47;5039524;28;20043;-73
2022/10/12 03:59:12;;;;;;;16.10;10.02;;;;;;;12.73;73.48;95392.84;5060184;28;20029;-73
2022/10/12 04:01:38;;;;;;;11.70;9.20;;;;;;;12.71;73.45;95386.91;5053091;28;20047;-73
2022/10/12 04:04:03;;;;;;;13.48;10.00;;;;;;;12.64;73.67;95377.94;5053025;28;20028;-73
2022/10/12 04:06:29;;;;;;;12.85;9.90;;;;;;;12.73;73.68;95389.38;5036473;28;20033;-73
2022/10/12 04:08:54;;;;;;;15.85;9.57;;;;;;;12.78;73.50;95397.66;5036509;28;20024;-73
2022/10/12 04:11:20;;;;;;;16.65;10.82;;;;;;;12.73;73.57;95405.00;5036504;28;20028;-73
2022/10/12 04:13:45;;;;;;;14.38;10.43;;;;;;;12.70;73.78;95406.13;5054161;28;20037;-73
2022/10/12 04:16:11;;;;;;;12.02;8.85;;;;;;;12.62;73.50;95394.63;5053066;28;20021;-73
2022/10/12 04:18:36;;;;;;;13.40;9.88;;;;;;;12.63;73.70;95393.72;5036291;28;20040;-73
2022/10/12 04:21:02;;;;;;;15.95;9.90;;;;;;;12.66;73.48;95399.50;5054166;28;20032;-73
2022/10/12 04:23:28;;;;;;;16.33;11.38;;;;;;;12.67;73.70;95403.75;5037428;28;20049;-73
2022/10/12 04:25:53;;;;;;;14.85;9.98;;;;;;;12.68;73.66;95397.59;5036146;28;20422;-73
2022/10/12 04:28:18;;;;;;;12.82;9.82;;;;;;;12.70;73.70;95394.84;5052735;28;20036;-73
2022/10/12 04:30:44;;;;;;;12.88;10.18;;;;;;;12.80;73.60;95403.56;5035821;28;20139;-73
2022/10/12 04:33:10;;;;;;;13.50;10.05;;;;;;;12.77;73.67;95409.03;5052612;28;20108;-73
2022/10/12 04:35:35;;;;;;;12.45;10.18;;;;;;;12.70;73.76;95402.66;5052614;28;20513;-73
2022/10/12 04:38:00;;;;;;;13.77;10.60;;;;;;;12.64;73.79;95395.34;5053776;28;20037;-73
2022/10/12 04:40:26;;;;;;;12.90;11.30;;;;;;;12.70;73.87;95411.34;5053854;28;20028;-73
2022/10/12 04:42:51;;;;;;;14.02;10.93;;;;;;;12.68;73.94;95405.41;5053595;28;20462;-73
2022/10/12 04:45:17;;;;;;;14.60;10.85;;;;;;;12.62;73.96;95407.66;5053774;28;20032;-73
2022/10/12 04:47:42;;;;;;;12.25;9.50;;;;;;;12.63;73.96;95404.13;5052373;28;20052;-73
2022/10/12 04:50:08;;;;;;;13.80;9.85;;;;;;;12.61;74.13;95400.81;5053661;28;20086;-74
2022/10/12 04:52:33;;;;;;;11.63;9.30;;;;;;;12.73;73.89;95420.66;5052319;28;20037;-73
2022/10/12 04:54:59;;;;;;;9.68;8.38;;;;;;;12.76;73.60;95415.22;5036475;28;20021;-77
2022/10/12 04:57:24;;;;;;;12.18;8.95;;;;;;;12.73;73.89;95415.44;5066566;28;20063;-73
2022/10/12 04:59:50;;;;;;;11.40;8.30;;;;;;;12.78;73.71;95409.88;5060535;28;20035;-72
2022/10/12 05:02:15;;;;;;;15.00;9.27;;;;;;;12.68;73.77;95417.63;5059070;28;20037;-74
2022/10/12 05:04:40;;;;;;;11.27;9.27;;;;;;;12.74;73.41;95417.94;5051908;28;20037;-74
2022/10/12 05:07:06;;;;;;;12.05;9.25;;;;;;;12.71;73.41;95407.75;5052181;28;20045;-74
2022/10/12 05:09:31;;;;;;;11.18;8.70;;;;;;;12.77;73.05;95419.47;5034944;28;20037;-74
2022/10/12 05:11:57;;;;;;;13.93;9.48;;;;;;;12.70;72.96;95408.72;5064833;28;20487;-74
2022/10/12 05:14:22;;;;;;;10.55;9.07;;;;;;;12.83;72.72;95418.97;5051645;28;20372;-74
2022/10/12 05:16:48;;;;;;;11.52;8.65;;;;;;;12.81;72.56;95423.47;5053244;28;20456;-73
2022/10/12 05:19:13;;;;;;;10.00;8.80;;;;;;;12.82;72.17;95419.91;5035063;28;20033;-73
2022/10/12 05:21:39;;;;;;;11.75;9.23;;;;;;;12.78;72.10;95418.50;5034770;28;20044;-73
2022/10/12 05:24:05;;;;;;;10.77;8.23;;;;;;;12.90;72.09;95427.94;5058336;28;20072;-73
2022/10/12 05:26:31;;;;;;;10.85;8.98;;;;;;;12.88;71.85;95424.63;5069914;28;20032;-73
2022/10/12 05:28:56;;;;;;;10.80;8.80;;;;;;;12.81;72.21;95426.06;5051853;28;20044;-73
2022/10/12 05:31:22;;;;;;;13.52;11.77;;;;;;;12.73;73.49;95441.50;5051251;28;20491;-73
2022/10/12 05:33:47;;;;;;;18.00;12.73;;;;;;;12.49;73.87;95408.69;5056531;28;20151;-73
2022/10/12 05:36:13;;;;;;;18.42;12.30;;;;;;;12.78;73.91;95455.00;5050941;28;20086;-73
2022/10/12 05:38:38;;;;;;;18.58;12.52;;;;;;;12.51;74.87;95455.47;5049857;28;20075;-73
2022/10/12 05:41:04;;;;;;;19.20;12.73;;;;;;;12.62;74.83;95455.44;5034898;28;20029;-73
2022/10/12 05:43:29;;;;;;;20.75;12.40;;;;;;;12.61;74.72;95460.75;5050305;28;20083;-73
2022/10/12 05:45:55;;;;;;;18.70;13.23;;;;;;;12.48;75.07;95466.97;5050998;28;20017;-73
2022/10/12 05:48:20;;;;;;;17.13;12.63;;;;;;;12.45;75.38;95462.00;5018086;28;20040;-73
2022/10/12 05:50:46;;;;;;;17.85;13.32;;;;;;;12.42;75.37;95466.63;5051310;28;20090;-73
2022/10/12 05:53:11;;;;;;;17.55;13.32;;;;;;;12.37;75.72;95473.97;5052374;28;20029;-73
2022/10/12 05:55:36;;;;;;;22.67;13.45;;;;;;;12.41;75.58;95467.56;5034510;28;20029;-73
2022/10/12 05:58:02;;;;;;;19.83;13.32;;;;;;;12.45;75.45;95474.19;5052277;28;20052;-73
2022/10/12 06:00:27;;;;;;;18.00;12.75;;;;;;;12.52;75.15;95467.53;5052487;28;20475;-72
2022/10/12 06:02:53;;;;;;;17.95;12.45;;;;;;;12.67;74.83;95476.72;5052109;28;20465;-73
2022/10/12 06:05:18;;;;;;;17.83;12.13;;;;;;;12.75;74.62;95481.31;5052261;28;20025;-73
2022/10/12 06:07:44;;;;;;;17.65;12.35;;;;;;;12.81;74.47;95473.00;5052056;28;20041;-72
2022/10/12 06:10:09;;;;;;;15.77;13.05;;;;;;;12.91;73.84;95481.75;5034194;28;20059;-73
2022/10/12 06:12:34;;;;;;;19.40;12.60;;;;;;;12.95;73.57;95483.16;5051949;28;20047;-73
2022/10/12 06:15:00;;;;;;;16.45;12.73;;;;;;;13.01;73.40;95486.19;5052039;28;20021;-73
2022/10/12 06:17:25;;;;;;;16.45;12.32;;;;;;;13.14;73.18;95487.66;5052099;28;20082;-73
2022/10/12 06:19:51;;;;;;;15.35;12.02;;;;;;;13.14;72.81;95489.47;5051849;28;20029;-73
2022/10/12 06:22:16;;;;;;;17.85;12.35;;;;;;;13.18;72.51;95489.09;5049630;28;20044;-73
2022/10/12 06:24:42;;;;;;;17.50;13.20;;;;;;;13.27;71.71;95482.31;5051967;28;20024;-73
2022/10/12 06:27:08;;;;;;;16.48;12.52;;;;;;;13.24;71.45;95471.28;5051691;28;20037;-73
2022/10/12 06:29:34;;;;;;;18.30;12.73;;;;;;;13.44;71.50;95491.34;5050358;28;20036;-73
2022/10/12 06:32:00;;;;;;;16.52;12.20;;;;;;;13.50;71.22;95493.44;5051663;28;20079;-72
2022/10/12 06:34:25;;;;;;;15.50;12.80;;;;;;;13.54;71.08;95491.38;5050185;28;20040;-73
2022/10/12 06:36:51;;;;;;;16.92;13.02;;;;;;;13.57;71.04;95493.78;5051515;28;20036;-73
2022/10/12 06:39:17;;;;;;;18.85;13.43;;;;;;;13.52;70.76;95480.28;5051451;28;20033;-73
2022/10/12 06:41:42;;;;;;;15.40;12.52;;;;;;;13.62;71.02;95497.66;5050078;28;20032;-73
2022/10/12 06:44:08;;;;;;;21.05;13.65;;;;;;;13.60;71.78;95499.56;5050043;28;20040;-73
2022/10/12 06:46:33;;;;;;;18.25;13.63;;;;;;;13.61;71.74;95497.75;5050072;28;20029;-73
2022/10/12 06:48:59;;;;;;;16.50;13.05;;;;;;;13.70;71.37;95493.53;5050120;28;20021;-73
2022/10/12 06:51:24;;;;;;;21.05;14.80;;;;;;;13.76;71.37;95506.06;5033567;28;20040;-73
2022/10/12 06:53:52;;;;;;;18.90;14.57;;;;;;;13.74;71.04;95506.22;5033411;28;20037;-73
2022/10/12 06:56:18;;;;;;;22.33;14.65;;;;;;;13.88;70.37;95512.88;5033885;28;20039;-73
2022/10/12 06:58:43;;;;;;;16.23;13.18;;;;;;;13.87;70.29;95508.59;5050096;28;20411;-73
2022/10/12 07:01:09;;;;;;;19.38;14.55;;;;;;;13.78;70.66;95505.00;5033430;28;20033;-73
2022/10/12 07:03:35;;;;;;;21.15;14.15;;;;;;;13.67;71.00;95510.28;5049821;28;20090;-73
2022/10/12 07:06:06;;;;;;;20.92;14.13;;;;;;;13.66;71.07;95518.28;5033256;28;20121;-71
2022/10/12 07:08:31;;;;;;;19.20;14.38;;;;;;;13.64;71.14;95507.94;5049978;28;20395;-72
2022/10/12 07:11:04;;;;;;;20.27;14.57;;;;;;;13.70;70.94;95510.03;5016769;28;20536;-72
2022/10/12 07:13:30;;;;;;;16.77;13.35;;;;;;;13.81;70.69;95517.78;5033167;28;20025;-72
2022/10/12 07:15:56;;;;;;;19.90;13.80;;;;;;;13.82;70.81;95516.03;5049792;28;20461;-72
2022/10/12 07:18:21;;;;;;;17.65;14.60;;;;;;;13.88;70.15;95501.63;5050852;28;20032;-72
2022/10/12 07:20:47;;;;;;;22.55;16.13;;;;;;;13.97;70.16;95512.09;5049672;28;20040;-73
2022/10/12 07:23:12;;;;;;;20.17;15.98;;;;;;;14.04;70.22;95517.59;5050840;28;20079;-73
2022/10/12 07:25:38;;;;;;;19.10;15.18;;;;;;;14.03;70.03;95511.56;5049558;28;20029;-71
2022/10/12 07:28:05;;;;;;;19.77;14.98;;;;;;;14.06;70.37;95515.69;5049612;28;20534;-73
2022/10/12 07:30:30;;;;;;;26.02;16.50;;;;;;;14.12;70.16;95527.41;5032977;28;20053;-71
2022/10/12 07:32:56;;;;;;;20.48;15.90;;;;;;;14.11;70.16;95529.22;5050512;28;20505;-71
2022/10/12 07:35:21;;;;;;;19.83;15.02;;;;;;;14.10;70.30;95527.56;5050840;28;20037;-73
2022/10/12 07:37:50;;;;;;;19.63;14.65;;;;;;;13.96;70.26;95528.75;5049527;28;20033;-73
2022/10/12 07:40:15;;;;;;;20.52;15.77;;;;;;;13.76;70.30;95493.03;5049460;28;20225;-74
2022/10/12 07:42:41;;;;;;;22.55;15.13;;;;;;;13.99;70.23;95525.03;5032811;28;20029;-73
2022/10/12 07:45:07;;;;;;;21.17;15.68;;;;;;;14.02;70.41;95515.16;5049368;28;20119;-73
2022/10/12 07:47:33;;;;;;;23.02;15.20;;;;;;;14.08;70.65;95529.47;5050790;28;20079;-70
2022/10/12 07:49:58;;;;;;;80.88;42.80;;;;;;;14.07;70.61;95533.88;5032641;28;20414;-70
2022/10/12 07:52:26;;;;;;;25.98;17.90;;;;;;;13.84;70.52;95527.97;5049234;28;20026;-69
2022/10/12 07:54:51;;;;;;;20.63;15.60;;;;;;;13.89;70.82;95521.53;5016793;28;20028;-70
2022/10/12 07:57:17;;;;;;;21.40;15.80;;;;;;;13.92;70.68;95516.88;5050474;28;20029;-69
2022/10/12 07:59:42;;;;;;;19.42;15.23;;;;;;;14.05;70.27;95530.56;5050486;28;20029;-72
2022/10/12 08:02:09;;;;;;;19.30;13.82;;;;;;;14.09;69.92;95526.72;5032577;28;20036;-74
2022/10/12 08:04:35;;;;;;;18.85;14.23;;;;;;;14.09;69.63;95526.72;5049042;28;20422;-73
2022/10/12 08:07:00;;;;;;;15.90;13.63;;;;;;;14.20;70.09;95528.41;5049219;28;20032;-73
2022/10/12 08:09:26;;;;;;;17.30;13.20;;;;;;;14.18;69.62;95514.66;5048951;28;20032;-73
2022/10/12 08:11:51;;;;;;;21.55;13.45;;;;;;;14.27;69.42;95516.47;5032545;28;20029;-73
2022/10/12 08:14:17;;;;;;;14.88;12.25;;;;;;;14.38;68.24;95527.81;5049077;28;20029;-73
2022/10/12 08:16:43;;;;;;;17.35;13.40;;;;;;;14.41;68.20;95525.75;5048958;28;20040;-73
2022/10/12 08:19:08;;;;;;;20.02;12.50;;;;;;;14.35;68.13;95530.66;5049012;28;20387;-73
2022/10/12 08:21:34;;;;;;;16.48;12.60;;;;;;;14.39;68.20;95525.03;5032340;28;20029;-73
2022/10/12 08:23:59;;;;;;;16.75;12.00;;;;;;;14.26;67.40;95499.16;5032439;28;20449;-73
2022/10/12 08:26:24;;;;;;;14.93;11.98;;;;;;;14.49;67.44;95527.69;5050664;28;20032;-73
2022/10/12 08:28:50;;;;;;;14.32;12.43;;;;;;;14.47;67.53;95524.38;5032445;28;20029;-73
2022/10/12 08:31:16;;;;;;;15.93;11.82;;;;;;;14.46;67.51;95520.94;5048700;28;20049;-73
2022/10/12 08:33:42;;;;;;;16.50;12.73;;;;;;;14.59;67.52;95528.56;5032937;28;20060;-73
2022/10/12 08:36:07;;;;;;;13.63;11.40;;;;;;;14.59;67.45;95523.31;5032390;28;20475;-73
2022/10/12 08:38:35;;;;;;;14.00;11.23;;;;;;;14.55;67.38;95521.97;5015803;28;20033;-73
2022/10/12 08:41:26;;;;;;;16.42;11.65;;;;;;;14.63;67.32;95532.56;5032477;28;20036;-73
2022/10/12 08:44:06;;;;;;;15.82;11.60;;;;;;;14.70;67.26;95536.28;5041890;28;20041;-69
2022/10/12 08:46:32;;;;;;;14.02;11.75;;;;;;;14.70;67.04;95531.06;5053558;28;20033;-68
2022/10/12 08:49:01;;;;;;;13.75;11.18;;;;;;;14.69;67.27;95518.94;5035803;28;20040;-69
2022/10/12 08:51:28;;;;;;;19.55;12.10;;;;;;;14.70;67.30;95520.59;5036248;28;20162;-69
2022/10/12 08:54:06;;;;;;;15.48;11.73;;;;;;;14.77;66.98;95533.16;5052290;28;20035;-70
2022/10/12 08:56:34;;;;;;;14.05;11.13;;;;;;;14.75;66.99;95523.63;5052207;28;20127;-70
2022/10/12 08:59:00;;;;;;;16.90;12.52;;;;;;;14.73;66.96;95528.16;5035986;28;20032;-71
2022/10/12 09:01:37;;;;;;;16.15;11.65;;;;;;;14.72;67.20;95516.06;5052162;28;20037;-72
2022/10/12 09:04:39;;;;;;;15.05;11.60;;;;;;;14.79;67.45;95534.66;5036128;28;20110;-69
2022/10/12 09:07:14;;;;;;;14.98;12.15;;;;;;;14.67;67.49;95536.56;5053188;28;20040;-73
2022/10/12 09:09:55;;;;;;;16.40;11.52;;;;;;;14.79;67.34;95533.81;5035221;28;20486;-71
2022/10/12 09:12:52;;;;;;;16.55;11.18;;;;;;;14.70;67.05;95527.63;5053147;28;20075;-75
2022/10/12 09:15:52;;;;;;;19.10;13.00;;;;;;;14.74;67.76;95536.88;5035265;28;20176;-72
2022/10/12 09:18:20;;;;;;;15.65;10.70;;;;;;;14.47;68.16;95527.00;5050015;28;20049;-76
2022/10/12 09:20:50;;;;;;;15.35;10.45;;;;;;;14.25;68.48;95517.56;5035289;28;20029;-72
2022/10/12 09:23:25;;;;;;;13.20;10.80;;;;;;;14.37;68.72;95534.78;5051743;28;20032;-75
2022/10/12 09:26:00;;;;;;;12.82;10.63;;;;;;;14.52;68.36;95532.69;5051756;28;20037;-75
2022/10/12 09:28:55;;;;;;;15.77;12.13;;;;;;;14.59;69.15;95533.78;5051643;28;20457;-71
2022/10/12 09:32:02;;;;;;;16.80;11.73;;;;;;;14.49;69.89;95535.53;5033999;28;20057;-71
2022/10/12 09:34:28;;;;;;;14.00;11.27;;;;;;;14.43;70.14;95528.19;5032911;28;20037;-71
2022/10/12 09:36:54;;;;;;;14.82;10.88;;;;;;;14.45;70.62;95536.75;5034897;28;20055;-71
2022/10/12 09:39:40;;;;;;;16.65;11.85;;;;;;;14.53;70.87;95535.16;5051462;28;20029;-71
2022/10/12 09:42:05;;;;;;;13.13;10.02;;;;;;;14.58;70.89;95529.53;5052246;28;20052;-72
2022/10/12 09:44:57;;;;;;;13.63;11.00;;;;;;;14.51;71.25;95510.91;5051267;28;20029;-72
2022/10/12 09:47:26;;;;;;;13.02;10.93;;;;;;;14.81;70.75;95532.72;5049260;28;20422;-72
2022/10/12 09:49:53;;;;;;;14.15;10.15;;;;;;;14.65;70.50;95528.00;5018460;28;20036;-73
2022/10/12 09:52:20;;;;;;;14.85;10.68;;;;;;;14.71;70.34;95537.97;5034711;28;20075;-72
2022/10/12 09:54:51;;;;;;;13.30;9.55;;;;;;;14.75;69.86;95528.06;5051238;28;20021;-73
2022/10/12 09:57:18;;;;;;;10.38;9.15;;;;;;;14.73;69.51;95514.28;5034957;28;20048;-73
2022/10/12 09:59:44;;;;;;;11.27;8.85;;;;;;;14.79;69.38;95528.59;5051000;28;20033;-74
2022/10/12 10:02:12;;;;;;;11.27;8.90;;;;;;;14.90;69.18;95520.63;5034340;28;20079;-73
2022/10/12 10:04:38;;;;;;;11.82;9.75;;;;;;;14.76;69.42;95503.53;5052135;28;20040;-73
2022/10/12 10:07:22;;;;;;;12.20;9.10;;;;;;;14.78;68.72;95506.84;5034325;28;20033;-71
2022/10/12 10:10:03;;;;;;;10.95;8.77;;;;;;;14.76;68.86;95511.38;5052070;28;20534;-72
2022/10/12 10:12:28;;;;;;;10.48;9.30;;;;;;;14.89;68.66;95503.28;5036611;28;20116;-72
2022/10/12 10:14:57;;;;;;;10.68;8.35;;;;;;;14.94;68.84;95506.31;5052041;28;20095;-71
2022/10/12 10:17:31;;;;;;;11.27;8.65;;;;;;;15.10;68.14;95505.75;5034551;28;20124;-69
2022/10/12 10:19:57;;;;;;;9.65;7.90;;;;;;;15.23;67.81;95502.88;5051689;28;20045;-69
2022/10/12 10:22:22;;;;;;;12.00;8.45;;;;;;;15.17;67.52;95494.59;5033897;28;20037;-70
2022/10/12 10:24:58;;;;;;;9.23;7.82;;;;;;;15.29;66.58;95499.69;5050488;28;20025;-69
2022/10/12 10:27:32;;;;;;;8.73;7.78;;;;;;;15.41;66.32;95494.19;5033871;28;20033;-69
2022/10/12 10:30:20;;;;;;;9.18;7.38;;;;;;;15.54;65.58;95487.81;5051514;28;20021;-69
2022/10/12 10:32:46;;;;;;;10.63;9.52;;;;;;;15.25;66.17;95487.88;5051693;28;20039;-69
2022/10/12 10:35:11;;;;;;;16.40;10.45;;;;;;;15.11;66.39;95492.56;5033680;28;20402;-69
2022/10/12 10:37:41;;;;;;;11.65;9.40;;;;;;;15.11;66.47;95474.22;5051545;28;20418;-69
2022/10/12 10:40:06;;;;;;;11.73;9.30;;;;;;;15.06;66.68;95479.06;5034182;28;20120;-69
2022/10/12 10:42:32;;;;;;;12.75;10.27;;;;;;;15.02;66.84;95469.03;5050527;28;20037;-69
2022/10/12 10:45:05;;;;;;;12.15;10.52;;;;;;;15.17;66.94;95473.66;5033693;28;20041;-69
2022/10/12 10:47:31;;;;;;;12.25;9.95;;;;;;;15.20;65.75;95457.69;5034187;28;20037;-69
2022/10/12 10:49:58;;;;;;;11.07;9.25;;;;;;;15.36;65.66;95477.25;5033462;28;20037;-69
2022/10/12 10:52:29;;;;;;;12.77;10.00;;;;;;;15.47;65.63;95471.84;5033543;28;20029;-69
2022/10/12 10:55:10;;;;;;;13.00;10.23;;;;;;;15.51;65.53;95472.38;5017090;28;20056;-69
2022/10/12 10:57:47;;;;;;;12.10;9.45;;;;;;;15.48;64.53;95451.72;5051201;28;20064;-69
2022/10/12 11:00:18;;;;;;;14.05;9.35;;;;;;;15.59;64.65;95460.22;5051329;28;20041;-69
2022/10/12 11:02:57;;;;;;;15.55;11.10;;;;;;;15.65;64.05;95464.06;5033638;28;20108;-69
2022/10/12 11:05:25;;;;;;;12.25;9.93;;;;;;;15.69;64.26;95468.09;5033771;28;20485;-69
2022/10/12 11:07:55;;;;;;;11.07;9.50;;;;;;;15.80;63.57;95459.25;5050555;28;20029;-69
2022/10/12 11:10:36;;;;;;;12.00;9.95;;;;;;;15.86;63.50;95456.06;5033401;28;20032;-69
2022/10/12 11:13:33;;;;;;;12.18;9.30;;;;;;;15.92;63.64;95455.47;5049777;28;20029;-69
2022/10/12 11:16:05;;;;;;;13.43;10.27;;;;;;;15.90;63.64;95446.09;5051273;28;20060;-69
2022/10/12 11:18:43;;;;;;;12.02;10.25;;;;;;;15.90;62.94;95452.16;5033834;28;20512;-69
2022/10/12 11:21:16;;;;;;;13.43;10.93;;;;;;;15.92;63.51;95452.03;5033503;28;20120;-69
2022/10/12 11:23:49;;;;;;;15.40;10.50;;;;;;;15.94;62.83;95458.78;5033423;28;20506;-69
2022/10/12 11:26:26;;;;;;;14.93;10.85;;;;;;;15.92;62.46;95447.63;5049754;28;20032;-69
2022/10/12 11:28:52;;;;;;;14.35;11.52;;;;;;;15.94;62.54;95437.81;5049707;28;20568;-69
2022/10/12 11:31:21;;;;;;;13.18;10.90;;;;;;;15.98;62.36;95436.53;5016335;28;20060;-69